Time;durP1;ratioP1;P1;durP2;ratioP2;P2;SDS_P1;SDS_P2;PMS_P1;PMS_P2;Temp;Humidity;BMP_temperature;BMP_pressure;BME280_temperature;BME280_humidity;BME280_pressure;Samples;Min_cycle;Max_cycle;Signal;HPM_P1;HPM_P2
2023/09/17 00:01:09;;;;;;;27.63;19.23;;;;;;;17.51;100.00;101144.16;5095771;28;20092;-87
2023/09/17 00:03:35;;;;;;;27.30;18.83;;;;;;;17.50;100.00;101151.53;5114049;28;20027;-87
2023/09/17 00:06:00;;;;;;;26.83;18.73;;;;;;;17.51;100.00;101144.97;5096100;28;20032;-87
2023/09/17 00:08:26;;;;;;;22.98;18.70;;;;;;;17.49;100.00;101146.31;5114406;28;20023;-88
2023/09/17 00:10:52;;;;;;;24.00;17.63;;;;;;;17.49;100.00;101140.81;5096464;28;20043;-87
2023/09/17 00:13:20;;;;;;;26.73;17.63;;;;;;;17.44;100.00;101140.75;5095927;28;20484;-92
2023/09/17 00:15:46;;;;;;;19.63;16.77;;;;;;;17.38;100.00;101137.13;5097075;28;20036;-92
2023/09/17 00:18:12;;;;;;;24.63;16.77;;;;;;;17.37;100.00;101140.94;5114437;28;20411;-92
2023/09/17 00:20:40;;;;;;;23.95;15.90;;;;;;;17.34;100.00;101141.44;5079412;28;20411;-92
2023/09/17 00:23:11;;;;;;;19.30;14.98;;;;;;;17.28;100.00;101143.28;5079962;28;20043;-92
2023/09/17 00:25:37;;;;;;;22.13;14.50;;;;;;;17.26;100.00;101147.34;5097435;28;20112;-93
2023/09/17 00:28:11;;;;;;;18.05;13.50;;;;;;;17.18;100.00;101144.00;5096532;28;20066;-92
2023/09/17 00:30:39;;;;;;;17.50;13.57;;;;;;;17.16;100.00;101145.31;5096803;28;20483;-93
2023/09/17 00:33:14;;;;;;;16.50;13.48;;;;;;;17.17;100.00;101146.97;5079156;28;20505;-92
2023/09/17 00:35:43;;;;;;;15.93;12.57;;;;;;;17.14;100.00;101151.06;5080260;28;20031;-93
2023/09/17 00:38:17;;;;;;;16.40;12.55;;;;;;;17.09;100.00;101134.50;5100414;28;20034;-93
2023/09/17 00:40:43;;;;;;;15.35;12.63;;;;;;;17.07;100.00;101139.44;5100316;28;20556;-92
2023/09/17 00:43:11;;;;;;;14.95;12.57;;;;;;;17.03;100.00;101143.75;5100814;28;20031;-93
2023/09/17 00:45:38;;;;;;;14.77;12.37;;;;;;;17.04;100.00;101141.81;5100971;28;20059;-93
2023/09/17 00:48:05;;;;;;;18.15;12.27;;;;;;;17.00;100.00;101133.28;5100350;28;20113;-92
2023/09/17 00:50:31;;;;;;;17.50;12.88;;;;;;;16.96;100.00;101130.25;5100432;28;20085;-93
2023/09/17 00:53:00;;;;;;;15.95;12.63;;;;;;;16.96;100.00;101130.25;5100674;28;20033;-93
2023/09/17 00:55:35;;;;;;;13.63;11.82;;;;;;;16.91;100.00;101130.16;5100318;28;20030;-93
2023/09/17 00:58:04;;;;;;;14.63;11.97;;;;;;;16.86;100.00;101127.31;5100350;28;20485;-93
2023/09/17 01:00:35;;;;;;;16.17;12.00;;;;;;;16.82;100.00;101116.00;5083877;28;20028;-93
2023/09/17 01:03:04;;;;;;;14.73;12.23;;;;;;;16.82;100.00;101120.66;5084552;28;20367;-92
2023/09/17 01:05:39;;;;;;;15.52;12.52;;;;;;;16.81;100.00;101119.81;5100445;28;20080;-93
2023/09/17 01:08:09;;;;;;;15.98;13.60;;;;;;;16.80;100.00;101120.91;5100635;28;20031;-93
2023/09/17 01:10:39;;;;;;;15.47;12.77;;;;;;;16.76;100.00;101107.97;5118137;28;20031;-93
2023/09/17 01:13:05;;;;;;;16.23;12.90;;;;;;;16.76;100.00;101108.78;5118407;28;20055;-93
2023/09/17 01:15:31;;;;;;;17.33;13.65;;;;;;;16.73;100.00;101119.44;5100322;28;20535;-93
2023/09/17 01:18:07;;;;;;;16.87;13.60;;;;;;;16.73;100.00;101120.25;5099942;28;20126;-93
2023/09/17 01:20:38;;;;;;;18.33;14.15;;;;;;;16.72;100.00;101117.75;5100924;28;20055;-93
2023/09/17 01:23:26;;;;;;;16.98;13.73;;;;;;;16.65;100.00;101113.28;5099554;28;20391;-92
2023/09/17 01:25:59;;;;;;;18.25;13.32;;;;;;;16.62;100.00;101097.34;5100661;28;20032;-92
2023/09/17 01:28:31;;;;;;;18.67;13.65;;;;;;;16.56;100.00;101097.50;5100152;28;20035;-92
2023/09/17 01:31:00;;;;;;;15.70;13.93;;;;;;;16.50;100.00;101096.59;5083019;28;20090;-92
2023/09/17 01:33:28;;;;;;;19.08;14.50;;;;;;;16.48;100.00;101102.31;5082556;28;20043;-92
2023/09/17 01:35:58;;;;;;;17.58;13.73;;;;;;;16.43;100.00;101096.78;5082404;28;20494;-92
2023/09/17 01:38:38;;;;;;;18.35;14.80;;;;;;;16.42;100.00;101097.03;5099092;28;20131;-92
2023/09/17 01:41:17;;;;;;;16.80;13.95;;;;;;;16.38;100.00;101095.84;5099317;28;20383;-93
2023/09/17 01:43:46;;;;;;;17.73;14.10;;;;;;;16.30;100.00;101089.72;5099578;28;20037;-92
2023/09/17 01:46:11;;;;;;;17.20;13.75;;;;;;;16.28;100.00;101086.41;5098860;28;20028;-92
2023/09/17 01:48:44;;;;;;;21.30;13.50;;;;;;;16.24;100.00;101079.75;5081915;28;20436;-92
2023/09/17 01:51:11;;;;;;;19.17;14.20;;;;;;;16.24;100.00;101079.75;5098842;28;20023;-92
2023/09/17 01:53:41;;;;;;;18.65;14.10;;;;;;;16.18;100.00;101061.59;5098616;28;20023;-92
2023/09/17 01:56:06;;;;;;;17.55;13.98;;;;;;;16.19;100.00;101068.69;5099257;28;20514;-92
2023/09/17 01:58:33;;;;;;;20.30;15.03;;;;;;;16.18;100.00;101071.69;5098691;28;20016;-92
2023/09/17 02:03:49;;;;;;;18.90;14.63;;;;;;;16.16;100.00;101057.44;5072279;28;20443;-92
2023/09/17 02:06:17;;;;;;;19.97;14.40;;;;;;;16.17;100.00;101068.13;5098698;28;20128;-93
2023/09/17 02:08:45;;;;;;;20.30;15.45;;;;;;;16.19;100.00;101065.16;5081168;28;20036;-92
2023/09/17 02:11:13;;;;;;;18.35;14.45;;;;;;;16.17;100.00;101079.09;5081660;28;20027;-92
2023/09/17 02:13:39;;;;;;;20.33;15.40;;;;;;;16.19;100.00;101076.91;5098639;28;20495;-91
2023/09/17 02:16:08;;;;;;;20.77;14.68;;;;;;;16.21;100.00;101080.25;5116468;28;20050;-91
2023/09/17 02:18:38;;;;;;;19.97;14.10;;;;;;;16.21;100.00;101084.88;5098061;28;20047;-92
2023/09/17 02:21:13;;;;;;;20.95;15.52;;;;;;;16.18;100.00;101079.91;5099003;28;20055;-92
2023/09/17 02:23:39;;;;;;;18.23;15.40;;;;;;;16.11;100.00;101071.88;5098160;28;20028;-91
2023/09/17 02:26:08;;;;;;;20.53;15.30;;;;;;;16.13;100.00;101067.78;5116002;28;20035;-92
2023/09/17 02:28:39;;;;;;;19.40;15.75;;;;;;;16.15;100.00;101059.34;5065204;28;20419;-91
2023/09/17 02:31:06;;;;;;;21.88;15.90;;;;;;;16.13;100.00;101062.31;5098688;28;20034;-91
2023/09/17 02:33:34;;;;;;;22.17;16.58;;;;;;;16.09;100.00;101063.91;5098051;28;20476;-92
2023/09/17 02:36:02;;;;;;;20.38;16.92;;;;;;;16.11;100.00;101060.91;5098261;28;20368;-92
2023/09/17 02:38:33;;;;;;;22.47;17.43;;;;;;;16.11;100.00;101056.25;5097988;28;20038;-93
2023/09/17 02:41:04;;;;;;;22.42;16.95;;;;;;;16.11;100.00;101049.97;5098189;28;20113;-93
2023/09/17 02:43:37;;;;;;;26.65;17.83;;;;;;;16.13;100.00;101045.88;5099029;28;20031;-93
2023/09/17 02:46:05;;;;;;;22.75;18.00;;;;;;;16.17;100.00;101051.72;5098701;28;20080;-92
2023/09/17 02:48:32;;;;;;;25.25;18.95;;;;;;;16.12;100.00;101046.13;5080934;28;20076;-93
2023/09/17 02:51:01;;;;;;;27.00;19.30;;;;;;;16.12;100.00;101043.41;5098326;28;20486;-93
2023/09/17 02:53:27;;;;;;;24.27;19.17;;;;;;;16.10;100.00;101040.91;5098125;28;20084;-93
2023/09/17 02:55:55;;;;;;;27.60;20.03;;;;;;;16.11;100.00;101039.84;5098636;28;20031;-93
2023/09/17 02:58:21;;;;;;;26.90;19.90;;;;;;;16.12;100.00;101037.91;5097193;28;20324;-93
2023/09/17 03:00:56;;;;;;;26.95;18.80;;;;;;;16.11;100.00;101033.53;5097651;28;20036;-94
2023/09/17 03:03:24;;;;;;;30.37;20.53;;;;;;;16.12;100.00;101032.44;5081889;28;20039;-94
2023/09/17 03:06:05;;;;;;;;;;;;;;;;;;;;;
2023/09/17 03:08:31;;;;;;;29.48;19.45;;;;;;;16.00;100.00;101034.44;5099664;28;20023;-94
2023/09/17 03:10:58;;;;;;;27.03;19.40;;;;;;;15.98;100.00;101039.34;5097892;28;20114;-94
2023/09/17 03:13:24;;;;;;;25.02;19.40;;;;;;;15.91;100.00;101026.63;5098191;28;20028;-94
2023/09/17 03:15:58;;;;;;;25.37;19.33;;;;;;;15.87;100.00;101033.69;5098355;28;20047;-94
2023/09/17 03:18:24;;;;;;;32.70;20.43;;;;;;;15.80;100.00;101022.06;5098286;28;20389;-94
2023/09/17 03:20:49;;;;;;;26.75;19.90;;;;;;;15.77;100.00;101028.81;5097646;28;20110;-95
2023/09/17 03:23:16;;;;;;;25.53;18.43;;;;;;;15.69;100.00;101040.13;5097795;28;20038;-94
2023/09/17 03:25:44;;;;;;;26.80;19.90;;;;;;;15.68;100.00;101037.66;5097164;28;20115;-94
2023/09/17 03:28:12;;;;;;;27.65;19.02;;;;;;;15.62;100.00;101034.00;5097693;28;20024;-94
2023/09/17 03:30:38;;;;;;;32.17;19.95;;;;;;;15.65;100.00;101032.66;5097688;28;20482;-94
2023/09/17 03:33:08;;;;;;;27.63;19.30;;;;;;;15.63;100.00;101032.91;5097381;28;20043;-95
2023/09/17 03:35:34;;;;;;;26.23;18.98;;;;;;;15.63;100.00;101034.84;5097970;28;20059;-95
2023/09/17 03:38:04;;;;;;;25.90;19.10;;;;;;;15.61;100.00;101033.16;5097433;28;20043;-95
2023/09/17 03:40:32;;;;;;;23.38;19.10;;;;;;;15.55;100.00;101036.06;5097786;28;20042;-95
2023/09/17 03:42:57;;;;;;;27.10;20.40;;;;;;;15.58;100.00;101039.13;5097190;28;20050;-95
2023/09/17 03:45:23;;;;;;;30.30;20.13;;;;;;;15.61;100.00;101035.09;5097738;28;20020;-95
2023/09/17 03:47:54;;;;;;;29.92;20.67;;;;;;;15.57;100.00;101031.16;5097394;28;20024;-95
2023/09/17 03:50:24;;;;;;;27.93;20.43;;;;;;;15.58;100.00;101033.66;5097174;28;20057;-95
2023/09/17 03:52:53;;;;;;;23.05;18.83;;;;;;;15.55;100.00;101031.41;5097943;28;20089;-95
2023/09/17 03:55:20;;;;;;;24.98;19.27;;;;;;;15.59;100.00;101029.84;5100295;28;20039;-94
2023/09/17 03:57:48;;;;;;;24.98;19.00;;;;;;;15.58;100.00;101036.38;5107765;28;20034;-94
2023/09/17 04:00:17;;;;;;;26.88;19.90;;;;;;;15.57;100.00;101042.09;5106744;28;20046;-94
2023/09/17 04:02:45;;;;;;;28.80;20.63;;;;;;;15.61;100.00;101030.44;5108405;28;20035;-94
2023/09/17 04:05:12;;;;;;;26.40;21.27;;;;;;;15.60;100.00;101037.00;5102149;28;20413;-95
2023/09/17 04:07:47;;;;;;;27.55;21.05;;;;;;;15.63;100.00;101037.56;5097034;28;20019;-95
2023/09/17 04:10:16;;;;;;;29.23;19.73;;;;;;;15.61;100.00;101038.63;5099665;28;20071;-93
2023/09/17 04:12:42;;;;;;;29.27;20.60;;;;;;;15.61;100.00;101030.44;5098720;28;20463;-95
2023/09/17 04:15:21;;;;;;;27.00;20.27;;;;;;;15.63;100.00;101030.19;5106632;28;20032;-93
2023/09/17 04:17:51;;;;;;;27.42;21.17;;;;;;;15.64;100.00;101031.03;5109709;28;20101;-93
2023/09/17 04:20:19;;;;;;;28.70;20.60;;;;;;;15.61;100.00;101026.88;5107500;28;20031;-93
2023/09/17 04:22:50;;;;;;;28.42;20.58;;;;;;;15.63;100.00;101035.66;5125208;28;20054;-93
2023/09/17 04:25:20;;;;;;;28.15;20.90;;;;;;;15.64;100.00;101033.78;5107952;28;20137;-94
2023/09/17 04:27:46;;;;;;;28.77;21.43;;;;;;;15.69;100.00;101026.47;5106456;28;20376;-94
2023/09/17 04:30:19;;;;;;;27.42;21.10;;;;;;;15.67;100.00;101025.06;5101328;28;20567;-94
2023/09/17 04:32:52;;;;;;;29.30;22.38;;;;;;;15.67;100.00;101020.41;5097857;28;20058;-93
2023/09/17 04:35:18;;;;;;;28.67;21.90;;;;;;;15.70;100.00;101019.09;5098557;28;20071;-94
2023/09/17 04:37:45;;;;;;;27.20;21.33;;;;;;;15.70;100.00;101028.13;5097634;28;20057;-93
2023/09/17 04:40:11;;;;;;;29.00;22.40;;;;;;;15.69;100.00;101023.72;5097712;28;20020;-94
2023/09/17 04:42:57;;;;;;;30.92;22.63;;;;;;;15.72;100.00;101019.69;5097638;28;20471;-94
2023/09/17 04:45:38;;;;;;;28.00;22.50;;;;;;;15.77;100.00;101020.59;5080249;28;20028;-93
2023/09/17 04:48:04;;;;;;;26.08;21.58;;;;;;;15.75;100.00;101021.91;5115106;28;20024;-94
2023/09/17 04:50:33;;;;;;;28.27;21.83;;;;;;;15.77;100.00;101025.25;5096812;28;20050;-94
2023/09/17 04:53:01;;;;;;;33.72;23.40;;;;;;;15.77;100.00;101017.06;5096797;28;20149;-94
2023/09/17 04:55:29;;;;;;;28.80;22.88;;;;;;;15.77;100.00;101017.06;5096732;28;20061;-94
2023/09/17 04:57:55;;;;;;;30.58;23.30;;;;;;;15.77;100.00;101017.06;5096896;28;20023;-94
2023/09/17 05:00:20;;;;;;;31.30;23.40;;;;;;;15.80;100.00;101022.06;5096514;28;20066;-93
2023/09/17 05:02:48;;;;;;;28.40;22.87;;;;;;;15.78;100.00;101019.56;5096271;28;20023;-93
2023/09/17 05:05:19;;;;;;;34.35;24.25;;;;;;;15.84;100.00;101014.19;5096653;28;20058;-93
2023/09/17 05:07:47;;;;;;;30.83;23.40;;;;;;;15.83;100.00;101018.81;5080685;28;20471;-93
2023/09/17 05:10:14;;;;;;;31.70;23.48;;;;;;;15.86;100.00;101028.47;5096559;28;20035;-93
2023/09/17 05:12:40;;;;;;;34.35;23.35;;;;;;;15.85;100.00;101022.13;5096500;28;20023;-94
2023/09/17 05:15:08;;;;;;;35.10;23.93;;;;;;;15.88;100.00;101024.38;5096359;28;20110;-95
2023/09/17 05:17:36;;;;;;;41.13;25.25;;;;;;;15.85;100.00;101022.13;5096310;28;20061;-94
2023/09/17 05:20:06;;;;;;;34.22;25.35;;;;;;;15.84;100.00;101033.34;5097111;28;20087;-94
2023/09/17 05:22:34;;;;;;;34.58;25.42;;;;;;;15.82;100.00;101030.84;5098027;28;20027;-96
2023/09/17 05:25:13;;;;;;;39.08;26.00;;;;;;;15.88;100.00;101032.59;5083065;28;20497;-94
2023/09/17 05:27:39;;;;;;;36.23;26.90;;;;;;;15.89;100.00;101025.22;5099891;28;20451;-91
2023/09/17 05:30:07;;;;;;;36.38;26.23;;;;;;;15.90;100.00;101033.19;5099103;28;20054;-90
2023/09/17 05:32:36;;;;;;;37.20;25.93;;;;;;;15.88;100.00;101037.25;5081752;28;20147;-89
2023/09/17 05:35:06;;;;;;;38.35;26.35;;;;;;;15.89;100.00;101025.22;5097279;28;20058;-90
2023/09/17 05:37:38;;;;;;;39.00;27.35;;;;;;;15.93;100.00;101027.22;5098309;28;20023;-90
2023/09/17 05:40:06;;;;;;;36.58;26.52;;;;;;;15.92;100.00;101033.75;5081838;28;20027;-90
2023/09/17 05:42:33;;;;;;;39.72;27.55;;;;;;;15.95;100.00;101032.44;5081054;28;20036;-92
2023/09/17 05:44:59;;;;;;;41.17;27.43;;;;;;;15.96;100.00;101032.19;5097597;28;20031;-90
2023/09/17 05:47:33;;;;;;;39.20;27.50;;;;;;;15.94;100.00;101031.63;5063638;28;20138;-89
2023/09/17 05:50:01;;;;;;;36.90;27.25;;;;;;;15.97;100.00;101038.50;5081719;28;20027;-90
2023/09/17 05:52:27;;;;;;;37.57;27.30;;;;;;;15.94;100.00;101028.88;5097306;28;20034;-90
2023/09/17 05:54:59;;;;;;;36.80;26.52;;;;;;;16.04;100.00;101030.13;5097315;28;20383;-89
2023/09/17 05:57:25;;;;;;;39.47;27.43;;;;;;;16.06;100.00;101028.81;5081629;28;20040;-89
2023/09/17 05:59:52;;;;;;;39.33;27.35;;;;;;;16.04;100.00;101032.88;5097334;28;20046;-89
2023/09/17 06:02:18;;;;;;;36.65;26.58;;;;;;;16.05;100.00;101027.16;5080551;28;20039;-90
2023/09/17 06:04:47;;;;;;;40.30;28.33;;;;;;;16.09;100.00;101028.31;5096758;28;20023;-88
2023/09/17 06:07:14;;;;;;;36.33;26.63;;;;;;;16.09;100.00;101025.59;5115650;28;20459;-89
2023/09/17 06:09:40;;;;;;;39.50;26.45;;;;;;;16.10;100.00;101031.88;5096951;28;20023;-90
2023/09/17 06:12:06;;;;;;;37.10;27.47;;;;;;;16.15;100.00;101034.72;5097315;28;20492;-89
2023/09/17 06:14:31;;;;;;;36.42;27.40;;;;;;;16.19;100.00;101037.78;5096991;28;20028;-88
2023/09/17 06:16:59;;;;;;;36.30;26.77;;;;;;;16.22;100.00;101034.53;5096962;28;20367;-88
2023/09/17 06:19:34;;;;;;;37.95;27.70;;;;;;;16.20;100.00;101037.53;5115167;28;20081;-90
2023/09/17 06:22:00;;;;;;;36.70;26.92;;;;;;;16.22;100.00;101037.28;5115177;28;20027;-88
2023/09/17 06:24:28;;;;;;;33.93;25.87;;;;;;;16.23;100.00;101038.94;5096396;28;20439;-89
2023/09/17 06:26:56;;;;;;;37.28;26.75;;;;;;;16.29;100.00;101035.19;5096730;28;20024;-88
2023/09/17 06:29:22;;;;;;;36.92;26.83;;;;;;;16.29;100.00;101035.19;5097131;28;20397;-88
2023/09/17 06:31:51;;;;;;;37.17;26.57;;;;;;;16.31;100.00;101041.25;5097004;28;20038;-89
2023/09/17 06:34:16;;;;;;;35.63;26.27;;;;;;;16.29;100.00;101035.19;4980626;28;2818733;-88
2023/09/17 06:36:42;;;;;;;36.57;26.00;;;;;;;16.34;100.00;101038.00;5097913;28;20105;-89
2023/09/17 06:39:07;;;;;;;37.53;26.53;;;;;;;16.35;100.00;101038.84;5115568;28;20483;-88
2023/09/17 06:41:39;;;;;;;38.20;26.67;;;;;;;16.34;100.00;101040.75;5097560;28;20371;-88
2023/09/17 06:44:07;;;;;;;34.83;27.27;;;;;;;16.35;100.00;101031.47;5098358;28;20123;-88
2023/09/17 06:46:33;;;;;;;37.20;27.70;;;;;;;16.42;100.00;101037.59;5115351;28;20031;-88
2023/09/17 06:48:58;;;;;;;38.45;27.45;;;;;;;16.45;100.00;101037.09;5097399;28;20360;-88
2023/09/17 06:51:23;;;;;;;36.57;26.80;;;;;;;16.46;100.00;101032.44;5115326;28;20020;-89
2023/09/17 06:53:49;;;;;;;37.97;27.43;;;;;;;16.55;100.00;101033.69;5080419;28;20193;-89
2023/09/17 06:56:15;;;;;;;37.28;28.27;;;;;;;16.64;100.00;101031.38;5097213;28;20020;-88
2023/09/17 06:58:42;;;;;;;36.70;27.10;;;;;;;16.63;100.00;101033.25;5097351;28;20050;-88
2023/09/17 07:01:09;;;;;;;35.40;27.55;;;;;;;16.66;100.00;101031.94;5097133;28;20040;-89
2023/09/17 07:03:34;;;;;;;37.00;27.98;;;;;;;16.71;100.00;101034.75;5115103;28;20035;-89
2023/09/17 07:06:00;;;;;;;36.27;26.90;;;;;;;16.82;100.00;101043.94;5097134;28;20463;-89
2023/09/17 07:08:25;;;;;;;35.38;27.38;;;;;;;16.80;100.00;101040.59;5097647;28;20038;-89
2023/09/17 07:10:51;;;;;;;35.43;27.27;;;;;;;16.84;100.00;101039.88;5115493;28;20032;-89
2023/09/17 07:13:17;;;;;;;34.35;26.75;;;;;;;16.88;100.00;101042.13;5096922;28;20032;-88
2023/09/17 07:15:46;;;;;;;36.50;27.77;;;;;;;16.88;100.00;101044.88;5096804;28;20020;-90
2023/09/17 07:18:12;;;;;;;34.95;26.80;;;;;;;16.94;100.00;101033.72;5097091;28;20042;-89
2023/09/17 07:20:38;;;;;;;39.67;28.17;;;;;;;17.01;100.00;101034.38;5096752;28;20035;-90
2023/09/17 07:23:04;;;;;;;34.20;26.80;;;;;;;17.04;100.00;101029.44;5079881;28;20498;-90
2023/09/17 07:25:29;;;;;;;37.00;28.37;;;;;;;17.13;100.00;101028.75;5080157;28;20315;-90
2023/09/17 07:27:55;;;;;;;39.33;29.83;;;;;;;17.19;100.00;101032.41;5114958;28;20452;-91
2023/09/17 07:30:22;;;;;;;37.00;27.93;;;;;;;17.31;100.00;101021.28;5096889;28;20472;-90
2023/09/17 07:32:51;;;;;;;39.50;29.27;;;;;;;17.44;100.00;101025.56;5079563;28;20048;-88
2023/09/17 07:35:17;;;;;;;35.57;28.13;;;;;;;17.53;100.00;101029.50;5097020;28;20040;-87
2023/09/17 07:37:42;;;;;;;34.60;27.85;;;;;;;17.69;100.00;101030.50;5096448;28;20034;-87
2023/09/17 07:40:08;;;;;;;38.77;28.73;;;;;;;17.82;100.00;101029.22;5079243;28;20031;-87
2023/09/17 07:42:34;;;;;;;36.15;28.00;;;;;;;17.92;100.00;101025.78;5096209;28;20035;-88
2023/09/17 07:45:02;;;;;;;32.27;26.60;;;;;;;17.92;100.00;101032.09;5096058;28;20520;-88
2023/09/17 07:47:28;;;;;;;34.70;27.70;;;;;;;17.88;100.00;101036.44;5097070;28;20400;-87
2023/09/17 07:49:53;;;;;;;32.55;25.73;;;;;;;17.90;100.00;101028.81;5079334;28;20058;-86
2023/09/17 07:52:19;;;;;;;33.80;26.20;;;;;;;17.88;100.00;101036.44;5096026;28;20548;-86
2023/09/17 07:54:44;;;;;;;32.87;25.47;;;;;;;17.82;100.00;101037.47;5096986;28;20402;-85
2023/09/17 07:57:19;;;;;;;30.70;25.07;;;;;;;17.76;100.00;101047.59;5114982;28;20063;-86
2023/09/17 07:59:52;;;;;;;34.63;26.52;;;;;;;17.74;100.00;101043.44;5096225;28;20035;-86
2023/09/17 08:02:17;;;;;;;34.58;26.77;;;;;;;17.76;100.00;101044.00;5096299;28;20038;-86
2023/09/17 08:04:43;;;;;;;37.17;28.17;;;;;;;17.84;100.00;101047.09;5096858;28;20031;-86
2023/09/17 08:07:08;;;;;;;34.90;28.20;;;;;;;17.97;100.00;101053.31;5114731;28;20035;-86
2023/09/17 08:09:36;;;;;;;35.58;26.55;;;;;;;18.00;100.00;101059.09;5095459;28;20096;-87
2023/09/17 08:12:02;;;;;;;37.50;26.90;;;;;;;18.02;100.00;101059.66;5113919;28;20036;-85
2023/09/17 08:14:28;;;;;;;37.17;26.57;;;;;;;17.98;100.00;101055.78;5096141;28;20096;-86
2023/09/17 08:16:53;;;;;;;34.75;26.70;;;;;;;17.86;100.00;101053.19;5095672;28;20110;-84
2023/09/17 08:19:19;;;;;;;34.40;27.03;;;;;;;17.85;100.00;101064.41;5114733;28;20108;-91
2023/09/17 08:21:45;;;;;;;40.10;27.58;;;;;;;17.92;100.00;101064.22;5096347;28;20028;-91
2023/09/17 08:24:10;;;;;;;41.20;28.93;;;;;;;17.98;100.00;101053.06;5096569;28;20031;-92
2023/09/17 08:26:38;;;;;;;37.00;27.80;;;;;;;18.02;100.00;101058.84;5096292;28;20036;-91
2023/09/17 08:29:05;;;;;;;43.67;27.90;;;;;;;18.09;100.00;101056.72;5096265;28;20041;-91
2023/09/17 08:31:32;;;;;;;41.47;29.08;;;;;;;18.12;100.00;101050.69;5096201;28;20131;-92
2023/09/17 08:34:36;;;;;;;39.75;28.67;;;;;;;18.22;100.00;101048.03;5096323;28;20055;-92
2023/09/17 08:36:53;;;;;;;37.93;29.20;;;;;;;18.28;100.00;101050.81;5110331;28;20035;-91
2023/09/17 08:39:27;;;;;;;40.25;28.92;;;;;;;18.34;100.00;101056.09;5096445;28;20095;-92
2023/09/17 08:41:55;;;;;;;39.97;29.00;;;;;;;18.53;100.00;101058.44;5096560;28;20024;-92
2023/09/17 08:44:21;;;;;;;40.22;29.85;;;;;;;18.67;100.00;101056.88;5097822;28;20379;-92
2023/09/17 08:46:51;;;;;;;40.80;29.50;;;;;;;18.67;100.00;101058.81;5096052;28;20020;-91
2023/09/17 08:49:19;;;;;;;40.17;29.55;;;;;;;18.78;100.00;101055.03;5096123;28;20034;-92
2023/09/17 08:51:55;;;;;;;42.60;30.30;;;;;;;18.85;100.00;101069.38;5096142;28;20046;-92
2023/09/17 08:54:37;;;;;;;42.55;29.70;;;;;;;18.88;100.00;101063.38;5096881;28;20031;-91
2023/09/17 08:57:05;;;;;;;43.17;30.40;;;;;;;18.90;100.00;101069.44;5097572;28;20028;-92
2023/09/17 08:59:38;;;;;;;40.27;29.80;;;;;;;18.98;100.00;101078.25;5099976;28;20031;-91
2023/09/17 09:02:10;;;;;;;42.47;29.98;;;;;;;19.14;100.00;101081.94;5102025;28;20030;-92
2023/09/17 09:04:36;;;;;;;42.47;30.17;;;;;;;19.23;100.00;101078.38;5099946;28;20077;-91
2023/09/17 09:07:03;;;;;;;44.63;29.90;;;;;;;19.28;100.00;101088.56;5099744;28;20098;-92
2023/09/17 09:09:35;;;;;;;44.13;30.35;;;;;;;19.27;100.00;101076.75;5100235;28;20429;-92
2023/09/17 09:12:02;;;;;;;44.73;29.40;;;;;;;19.16;100.00;101088.78;5100013;28;20043;-92
2023/09/17 09:14:30;;;;;;;37.38;29.55;;;;;;;19.09;100.00;101086.31;5099525;28;20613;-92
2023/09/17 09:17:03;;;;;;;43.33;30.75;;;;;;;18.96;100.00;101096.97;5099825;28;20077;-92
2023/09/17 09:19:28;;;;;;;45.10;31.02;;;;;;;18.80;100.00;101094.06;5099998;28;20031;-92
2023/09/17 09:21:54;;;;;;;49.17;31.33;;;;;;;18.75;100.00;101102.28;5099747;28;20433;-92
2023/09/17 09:24:23;;;;;;;48.03;31.10;;;;;;;18.71;100.00;101096.47;5099321;28;20122;-92
2023/09/17 09:26:49;;;;;;;50.80;32.67;;;;;;;18.64;100.00;101093.13;5099962;28;20115;-93
2023/09/17 09:29:15;;;;;;;52.10;32.83;;;;;;;18.68;100.00;101094.25;5099674;28;20488;-92
2023/09/17 09:31:40;;;;;;;51.37;32.73;;;;;;;18.73;100.00;101086.06;5099761;28;20059;-92
2023/09/17 09:34:09;;;;;;;50.83;32.08;;;;;;;18.66;100.00;101088.22;5099626;28;20056;-95
2023/09/17 09:43:37;;;;;;;46.47;32.23;;;;;;;18.58;100.00;101073.03;5025480;28;20496;-95
2023/09/17 09:46:17;;;;;;;51.08;32.17;;;;;;;18.71;100.00;101071.75;5099857;28;20031;-96
2023/09/17 09:48:43;;;;;;;56.10;33.47;;;;;;;18.70;100.00;101077.50;5069434;28;20585;-94
2023/09/17 09:51:11;;;;;;;53.10;33.90;;;;;;;18.59;100.00;101082.13;5099843;28;20035;-96
2023/09/17 09:53:40;;;;;;;53.90;34.05;;;;;;;18.53;100.00;101078.50;5082324;28;20445;-96
2023/09/17 09:56:06;;;;;;;55.30;33.88;;;;;;;18.46;100.00;101080.63;5082675;28;20038;-96
2023/09/17 09:58:41;;;;;;;56.80;35.15;;;;;;;18.53;100.00;101081.25;5099719;28;20038;-96
2023/09/17 10:01:07;;;;;;;57.25;34.85;;;;;;;18.59;100.00;101082.13;5099957;28;20032;-96
2023/09/17 10:03:35;;;;;;;54.23;34.30;;;;;;;18.68;100.00;101075.03;5099481;28;20039;-96
2023/09/17 10:06:07;;;;;;;53.97;34.40;;;;;;;18.76;100.00;101074.53;5099193;28;20023;-96
2023/09/17 10:08:45;;;;;;;52.40;33.13;;;;;;;18.64;100.00;101071.13;5082477;28;20036;-95
2023/09/17 10:11:23;;;;;;;53.47;33.13;;;;;;;18.79;100.00;101075.09;5100427;28;20103;-95
2023/09/17 10:13:53;;;;;;;52.97;33.60;;;;;;;19.07;100.00;101068.41;5100223;28;20031;-96
2023/09/17 10:16:29;;;;;;;49.83;32.53;;;;;;;19.37;100.00;101064.13;5098912;28;20040;-96
2023/09/17 10:19:04;;;;;;;49.83;32.13;;;;;;;19.92;100.00;101062.66;5082948;28;20032;-95
2023/09/17 10:21:39;;;;;;;48.70;31.52;;;;;;;20.24;100.00;101064.38;5099767;28;20038;-96
2023/09/17 10:24:09;;;;;;;44.08;30.65;;;;;;;20.47;100.00;101068.47;5099152;28;20028;-96
2023/09/17 10:26:42;;;;;;;46.50;29.83;;;;;;;;;;5099109;28;20024;-96
2023/09/17 10:29:17;;;;;;;39.13;28.00;;;;;;;21.03;100.00;101061.25;5099308;28;20100;-96
2023/09/17 10:32:28;;;;;;;;;;;;;;;;;;;;;
2023/09/17 10:34:52;;;;;;;38.00;27.33;;;;;;;21.37;100.00;101061.38;5100073;28;20052;-96
2023/09/17 10:37:25;;;;;;;37.03;26.98;;;;;;;21.37;100.00;101055.84;5082917;28;20067;-93
2023/09/17 10:40:16;;;;;;;35.72;25.40;;;;;;;21.45;100.00;101064.66;5099259;28;20024;-93
2023/09/17 10:43:01;;;;;;;37.23;26.50;;;;;;;21.04;100.00;101060.13;5098599;28;20441;-96
2023/09/17 10:45:45;;;;;;;;;;;;;;;;;;;;;
2023/09/17 10:48:12;;;;;;;37.88;27.08;;;;;;;20.89;100.00;101052.75;5117597;28;20359;-95
2023/09/17 10:50:56;;;;;;;40.17;25.92;;;;;;;21.09;100.00;101051.84;5099198;28;20047;-95
2023/09/17 10:53:22;;;;;;;37.53;26.45;;;;;;;21.25;100.00;101046.28;5098958;28;20517;-96
2023/09/17 10:56:03;;;;;;;36.83;25.93;;;;;;;21.46;100.00;101045.03;5098925;28;20039;-95
2023/09/17 10:58:42;;;;;;;36.85;26.35;;;;;;;21.84;100.00;101042.66;5100363;28;20040;-96
2023/09/17 11:02:18;;;;;;;35.50;25.42;;;;;;;22.01;100.00;101045.03;5099929;28;20039;-96
2023/09/17 11:04:26;;;;;;;33.05;24.08;;;;;;;22.43;100.00;101057.41;5100753;28;20043;-95
2023/09/17 11:07:07;;;;;;;32.17;23.40;;;;;;;22.49;100.00;101054.59;5099883;28;20031;-95
2023/09/17 11:09:45;;;;;;;32.30;23.98;;;;;;;22.75;100.00;101052.38;5084783;28;20043;-96
2023/09/17 11:12:12;;;;;;;33.00;23.27;;;;;;;23.23;100.00;101051.63;5099926;28;20035;-96
2023/09/17 11:14:45;;;;;;;30.92;21.55;;;;;;;23.64;100.00;101049.09;5099504;28;20173;-95
2023/09/17 11:17:17;;;;;;;31.77;21.08;;;;;;;23.44;100.00;101054.94;5082716;28;20482;-95
2023/09/17 11:19:49;;;;;;;27.13;20.57;;;;;;;23.48;100.00;101050.44;5097868;28;20063;-95
2023/09/17 11:22:20;;;;;;;26.25;20.80;;;;;;;23.71;100.00;101051.53;5099020;28;20099;-96
2023/09/17 11:24:47;;;;;;;26.75;19.17;;;;;;;23.84;100.00;101055.47;5098612;28;20024;-94
2023/09/17 11:27:48;;;;;;;29.80;20.77;;;;;;;23.93;100.00;101067.56;5101300;28;20152;-96